BER2127 EDDC-EDDF
Flight info
| Callsign | BER2127 |
|---|---|
| Flight time | N/A |
| Altitude | 30000 |
| Route | ABKIS3E ABKIS Z715 PEROX/N0461F360 Z715 NURGO T170 VAGAB/N0418F240 T170 GAPLA T178 KERAX KERAX5D |
| Aircraft | B738/M-SDE2E3FGHIRWXY/LB1 |
Departure
| Time | 2026-05-08 20:21 |
|---|---|
| Airport | Dresden Airport (EDDC) |
Arrival
| Time | N/A |
|---|---|
| Airport | Frankfurt Main Airport (EDDF) |
| Time | Latitude | Longitude | Altitude | Speed | Heading |
|---|---|---|---|---|---|
| 2026-05-08 19:56 | 51.12630 | 13.76545 | 714 ft | 0 kts | 221° |
| 2026-05-08 19:59 | 51.12630 | 13.76546 | 737 ft | 0 kts | 221° |
| 2026-05-08 20:01 | 51.12606 | 13.76588 | 712 ft | 0 kts | 221° |
| 2026-05-08 20:02 | 51.12596 | 13.76605 | 715 ft | 0 kts | 221° |
| 2026-05-08 20:07 | 51.12598 | 13.76607 | 715 ft | 2 kts | 221° |
| 2026-05-08 20:08 | 51.12617 | 13.76635 | 715 ft | 4 kts | 227° |
| 2026-05-08 20:08 | 51.12634 | 13.76668 | 714 ft | 4 kts | 238° |
| 2026-05-08 20:08 | 51.12645 | 13.76705 | 713 ft | 4 kts | 268° |
| 2026-05-08 20:08 | 51.12642 | 13.76730 | 713 ft | 0 kts | 311° |
| 2026-05-08 20:11 | 51.12648 | 13.76720 | 712 ft | 3 kts | 311° |
| 2026-05-08 20:11 | 51.12670 | 13.76680 | 710 ft | 7 kts | 311° |
| 2026-05-08 20:12 | 51.12702 | 13.76622 | 711 ft | 7 kts | 311° |
| 2026-05-08 20:12 | 51.12719 | 13.76591 | 712 ft | 0 kts | 311° |
| 2026-05-08 20:12 | 51.12726 | 13.76577 | 710 ft | 6 kts | 311° |
| 2026-05-08 20:12 | 51.12784 | 13.76580 | 714 ft | 12 kts | 40° |
| 2026-05-08 20:13 | 51.12859 | 13.76680 | 711 ft | 16 kts | 41° |
| 2026-05-08 20:13 | 51.12952 | 13.76810 | 711 ft | 18 kts | 41° |
| 2026-05-08 20:13 | 51.13046 | 13.76941 | 713 ft | 18 kts | 40° |
| 2026-05-08 20:13 | 51.13132 | 13.77060 | 713 ft | 14 kts | 41° |
| 2026-05-08 20:14 | 51.13181 | 13.77085 | 710 ft | 5 kts | 323° |
| 2026-05-08 20:14 | 51.13189 | 13.77072 | 712 ft | 0 kts | 313° |
| 2026-05-08 20:14 | 51.13191 | 13.77067 | 711 ft | 2 kts | 313° |
| 2026-05-08 20:15 | 51.13223 | 13.77019 | 711 ft | 9 kts | 335° |
| 2026-05-08 20:15 | 51.13284 | 13.77071 | 710 ft | 13 kts | 42° |
| 2026-05-08 20:15 | 51.13365 | 13.77183 | 710 ft | 19 kts | 40° |
| 2026-05-08 20:15 | 51.13479 | 13.77339 | 713 ft | 24 kts | 41° |
| 2026-05-08 20:16 | 51.13620 | 13.77532 | 713 ft | 29 kts | 40° |
| 2026-05-08 20:16 | 51.13779 | 13.77752 | 713 ft | 30 kts | 41° |
| 2026-05-08 20:16 | 51.13933 | 13.77967 | 714 ft | 29 kts | 40° |
| 2026-05-08 20:16 | 51.14067 | 13.78149 | 712 ft | 22 kts | 40° |
| 2026-05-08 20:17 | 51.14159 | 13.78276 | 711 ft | 6 kts | 41° |
| 2026-05-08 20:17 | 51.14192 | 13.78320 | 695 ft | 6 kts | 40° |
| 2026-05-08 20:17 | 51.14225 | 13.78361 | 713 ft | 6 kts | 29° |
| 2026-05-08 20:17 | 51.14265 | 13.78359 | 714 ft | 6 kts | 331° |
| 2026-05-08 20:18 | 51.14286 | 13.78326 | 712 ft | 0 kts | 314° |
| 2026-05-08 20:19 | 51.14296 | 13.78307 | 712 ft | 6 kts | 311° |
| 2026-05-08 20:19 | 51.14330 | 13.78245 | 710 ft | 8 kts | 311° |
| 2026-05-08 20:19 | 51.14365 | 13.78180 | 715 ft | 8 kts | 311° |
| 2026-05-08 20:19 | 51.14386 | 13.78112 | 714 ft | 6 kts | 253° |
| 2026-05-08 20:20 | 51.14375 | 13.78094 | 715 ft | 0 kts | 221° |
| 2026-05-08 20:20 | 51.14331 | 13.78031 | 713 ft | 32 kts | 221° |
| 2026-05-08 20:20 | 51.13969 | 13.77533 | 711 ft | 103 kts | 221° |
| 2026-05-08 20:21 | 51.13269 | 13.76572 | 715 ft | 159 kts | 221° |
| 2026-05-08 20:21 | 51.12380 | 13.75333 | 1152 ft | 173 kts | 223° |
| 2026-05-08 20:21 | 51.11526 | 13.74007 | 1979 ft | 171 kts | 224° |
| 2026-05-08 20:21 | 51.10685 | 13.72669 | 2625 ft | 180 kts | 224° |
| 2026-05-08 20:22 | 51.09713 | 13.71143 | 2934 ft | 209 kts | 224° |
| 2026-05-08 20:22 | 51.08638 | 13.69494 | 3417 ft | 219 kts | 221° |
| 2026-05-08 20:22 | 51.07476 | 13.67901 | 4086 ft | 223 kts | 220° |
| 2026-05-08 20:22 | 51.06689 | 13.66836 | 4600 ft | 225 kts | 220° |
| 2026-05-08 20:23 | 51.05105 | 13.64697 | 5749 ft | 222 kts | 220° |
| 2026-05-08 20:23 | 51.03923 | 13.63098 | 6543 ft | 224 kts | 221° |
| 2026-05-08 20:23 | 51.02822 | 13.61329 | 7193 ft | 230 kts | 241° |
| 2026-05-08 20:23 | 51.02325 | 13.58798 | 7460 ft | 254 kts | 260° |
| 2026-05-08 20:24 | 51.02011 | 13.55923 | 7899 ft | 270 kts | 261° |
| 2026-05-08 20:24 | 51.01686 | 13.52967 | 8551 ft | 277 kts | 261° |
| 2026-05-08 20:24 | 51.01339 | 13.49941 | 9414 ft | 279 kts | 260° |
| 2026-05-08 20:24 | 51.00972 | 13.46884 | 10164 ft | 284 kts | 260° |
| 2026-05-08 20:25 | 51.00588 | 13.43785 | 10909 ft | 286 kts | 259° |
| 2026-05-08 20:25 | 51.00191 | 13.40670 | 11719 ft | 287 kts | 259° |
| 2026-05-08 20:25 | 50.99786 | 13.37545 | 12224 ft | 302 kts | 259° |
| 2026-05-08 20:25 | 50.99339 | 13.34145 | 12405 ft | 325 kts | 258° |
| 2026-05-08 20:26 | 50.98857 | 13.30517 | 12679 ft | 344 kts | 258° |
| 2026-05-08 20:26 | 50.98351 | 13.26753 | 13307 ft | 351 kts | 258° |
| 2026-05-08 20:26 | 50.97838 | 13.22957 | 14117 ft | 352 kts | 258° |
| 2026-05-08 20:26 | 50.97321 | 13.19143 | 14867 ft | 355 kts | 258° |
| 2026-05-08 20:27 | 50.96797 | 13.15295 | 15609 ft | 357 kts | 258° |
| 2026-05-08 20:27 | 50.96282 | 13.11540 | 16766 ft | 348 kts | 258° |
| 2026-05-08 20:27 | 50.95754 | 13.07690 | 17067 ft | 365 kts | 258° |
| 2026-05-08 20:27 | 50.95204 | 13.03695 | 17223 ft | 383 kts | 258° |
| 2026-05-08 20:28 | 50.94622 | 12.99485 | 17597 ft | 394 kts | 258° |
| 2026-05-08 20:28 | 50.94029 | 12.95212 | 18212 ft | 398 kts | 258° |
| 2026-05-08 20:28 | 50.93430 | 12.90912 | 18848 ft | 400 kts | 258° |
| 2026-05-08 20:28 | 50.92825 | 12.86579 | 19435 ft | 402 kts | 258° |
| 2026-05-08 20:29 | 50.92216 | 12.82230 | 19998 ft | 405 kts | 258° |
| 2026-05-08 20:29 | 50.91601 | 12.77849 | 20533 ft | 408 kts | 258° |
| 2026-05-08 20:29 | 50.90986 | 12.73483 | 21049 ft | 412 kts | 258° |
| 2026-05-08 20:29 | 50.90359 | 12.69039 | 21585 ft | 414 kts | 258° |
| 2026-05-08 20:30 | 50.89725 | 12.64565 | 22112 ft | 417 kts | 258° |
| 2026-05-08 20:30 | 50.89083 | 12.60049 | 22598 ft | 420 kts | 258° |
| 2026-05-08 20:30 | 50.88444 | 12.55564 | 23089 ft | 423 kts | 258° |
| 2026-05-08 20:30 | 50.87790 | 12.50985 | 23575 ft | 426 kts | 258° |
| 2026-05-08 20:31 | 50.87130 | 12.46379 | 24001 ft | 428 kts | 258° |
| 2026-05-08 20:31 | 50.86474 | 12.41819 | 24394 ft | 431 kts | 257° |
| 2026-05-08 20:31 | 50.85803 | 12.37165 | 24792 ft | 433 kts | 257° |
| 2026-05-08 20:31 | 50.85126 | 12.32489 | 25171 ft | 435 kts | 257° |
| 2026-05-08 20:32 | 50.84456 | 12.27869 | 25534 ft | 438 kts | 257° |
| 2026-05-08 20:32 | 50.83768 | 12.23143 | 25855 ft | 441 kts | 257° |
| 2026-05-08 20:32 | 50.83074 | 12.18387 | 26212 ft | 443 kts | 257° |
| 2026-05-08 20:32 | 50.82379 | 12.13641 | 26717 ft | 441 kts | 257° |
| 2026-05-08 20:33 | 50.81694 | 12.08979 | 27289 ft | 438 kts | 257° |
| 2026-05-08 20:33 | 50.81002 | 12.04281 | 27878 ft | 435 kts | 257° |
| 2026-05-08 20:33 | 50.80316 | 11.99639 | 28456 ft | 433 kts | 257° |
| 2026-05-08 20:33 | 50.79629 | 11.95002 | 28948 ft | 432 kts | 257° |
| 2026-05-08 20:34 | 50.78943 | 11.90388 | 29421 ft | 431 kts | 257° |
| 2026-05-08 20:34 | 50.78266 | 11.85850 | 30008 ft | 429 kts | 256° |
| 2026-05-08 20:34 | 50.76870 | 11.76525 | 30163 ft | 442 kts | 256° |
| 2026-05-08 20:35 | 50.76155 | 11.71770 | 30171 ft | 446 kts | 256° |
| 2026-05-08 20:35 | 50.74712 | 11.62220 | 30159 ft | 448 kts | 256° |
| 2026-05-08 20:36 | 50.73256 | 11.52636 | 30162 ft | 449 kts | 256° |
| 2026-05-08 20:36 | 50.72037 | 11.44663 | 30160 ft | 448 kts | 256° |
| 2026-05-08 20:37 | 50.70329 | 11.33549 | 30159 ft | 447 kts | 256° |
| 2026-05-08 20:37 | 50.69121 | 11.25737 | 30150 ft | 427 kts | 256° |
| 2026-05-08 20:37 | 50.68199 | 11.19798 | 30152 ft | 415 kts | 256° |
| 2026-05-08 20:38 | 50.67747 | 11.16898 | 30144 ft | 405 kts | 256° |
| 2026-05-08 20:38 | 50.67086 | 11.12660 | 30142 ft | 390 kts | 256° |
| 2026-05-08 20:38 | 50.66481 | 11.08553 | 30140 ft | 376 kts | 258° |
| 2026-05-08 20:38 | 50.65990 | 11.04619 | 30144 ft | 364 kts | 259° |
| 2026-05-08 20:39 | 50.65533 | 11.00686 | 30167 ft | 368 kts | 259° |
| 2026-05-08 20:39 | 50.65068 | 10.96649 | 30174 ft | 379 kts | 259° |
| 2026-05-08 20:39 | 50.64585 | 10.92495 | 30182 ft | 390 kts | 259° |
| 2026-05-08 20:40 | 50.63559 | 10.83884 | 30172 ft | 409 kts | 259° |
| 2026-05-08 20:40 | 50.62466 | 10.74908 | 30170 ft | 422 kts | 258° |
| 2026-05-08 20:41 | 50.61370 | 10.66009 | 30133 ft | 406 kts | 258° |
| 2026-05-08 20:41 | 50.60298 | 10.57362 | 30148 ft | 401 kts | 258° |
| 2026-05-08 20:42 | 50.59221 | 10.48752 | 30154 ft | 404 kts | 258° |
| 2026-05-08 20:42 | 50.58127 | 10.40047 | 30144 ft | 405 kts | 258° |
| 2026-05-08 20:43 | 50.57026 | 10.31346 | 30143 ft | 404 kts | 258° |
| 2026-05-08 20:43 | 50.56486 | 10.27104 | 29973 ft | 395 kts | 258° |
| 2026-05-08 20:43 | 50.55946 | 10.22874 | 29466 ft | 392 kts | 258° |
| 2026-05-08 20:43 | 50.55405 | 10.18650 | 28852 ft | 392 kts | 258° |
| 2026-05-08 20:44 | 50.54871 | 10.14481 | 28265 ft | 391 kts | 258° |
| 2026-05-08 20:44 | 50.54331 | 10.10288 | 27775 ft | 389 kts | 258° |
| 2026-05-08 20:44 | 50.53796 | 10.06142 | 27327 ft | 385 kts | 258° |
| 2026-05-08 20:44 | 50.53265 | 10.02031 | 26880 ft | 382 kts | 258° |
| 2026-05-08 20:45 | 50.52735 | 9.97952 | 26421 ft | 379 kts | 258° |
| 2026-05-08 20:45 | 50.52209 | 9.93904 | 25969 ft | 377 kts | 258° |
| 2026-05-08 20:45 | 50.51688 | 9.89915 | 25512 ft | 375 kts | 258° |
| 2026-05-08 20:45 | 50.51158 | 9.85864 | 24763 ft | 381 kts | 258° |
| 2026-05-08 20:46 | 50.50625 | 9.81802 | 24179 ft | 383 kts | 258° |
| 2026-05-08 20:46 | 50.50088 | 9.77714 | 23748 ft | 380 kts | 258° |
| 2026-05-08 20:46 | 50.49553 | 9.73657 | 23256 ft | 377 kts | 258° |
| 2026-05-08 20:46 | 50.49020 | 9.69632 | 22553 ft | 378 kts | 258° |
| 2026-05-08 20:47 | 50.48480 | 9.65567 | 21464 ft | 390 kts | 258° |
| 2026-05-08 20:47 | 50.47626 | 9.61511 | 20681 ft | 392 kts | 240° |
| 2026-05-08 20:47 | 50.45948 | 9.58163 | 20206 ft | 388 kts | 224° |
| 2026-05-08 20:47 | 50.43775 | 9.55698 | 19714 ft | 385 kts | 207° |
| 2026-05-08 20:48 | 50.41311 | 9.54042 | 19188 ft | 383 kts | 203° |
| 2026-05-08 20:48 | 50.38805 | 9.52655 | 18612 ft | 383 kts | 193° |
| 2026-05-08 20:48 | 50.36173 | 9.52473 | 18034 ft | 384 kts | 175° |
| 2026-05-08 20:48 | 50.33532 | 9.53034 | 17518 ft | 380 kts | 173° |
| 2026-05-08 20:49 | 50.30922 | 9.53683 | 16962 ft | 378 kts | 172° |
| 2026-05-08 20:49 | 50.28332 | 9.54338 | 16399 ft | 376 kts | 172° |
| 2026-05-08 20:49 | 50.25749 | 9.54978 | 15855 ft | 374 kts | 173° |
| 2026-05-08 20:49 | 50.23178 | 9.55576 | 15344 ft | 370 kts | 176° |
| 2026-05-08 20:50 | 50.20648 | 9.55207 | 14781 ft | 365 kts | 200° |
| 2026-05-08 20:50 | 50.18521 | 9.53236 | 14308 ft | 360 kts | 223° |
| 2026-05-08 20:50 | 50.16883 | 9.50325 | 13834 ft | 356 kts | 237° |
| 2026-05-08 20:50 | 50.15805 | 9.46864 | 13289 ft | 354 kts | 249° |
| 2026-05-08 20:51 | 50.14966 | 9.43282 | 12793 ft | 351 kts | 250° |
| 2026-05-08 20:51 | 50.14163 | 9.39699 | 12422 ft | 345 kts | 251° |
| 2026-05-08 20:51 | 50.13380 | 9.36197 | 12177 ft | 339 kts | 251° |
| 2026-05-08 20:51 | 50.12597 | 9.32728 | 12124 ft | 339 kts | 250° |
| 2026-05-08 20:52 | 50.11799 | 9.29230 | 12112 ft | 346 kts | 250° |
| 2026-05-08 20:52 | 50.10991 | 9.25724 | 12105 ft | 349 kts | 250° |
| 2026-05-08 20:52 | 50.10167 | 9.22164 | 12114 ft | 349 kts | 250° |